Time;durP1;ratioP1;P1;durP2;ratioP2;P2;SDS_P1;SDS_P2;PMS_P1;PMS_P2;Temp;Humidity;BMP_temperature;BMP_pressure;BME280_temperature;BME280_humidity;BME280_pressure;Samples;Min_cycle;Max_cycle;Signal;HPM_P1;HPM_P2
2021/10/01 00:04:05;;;;;;;;;;;;;;;;;;10318022;28;20401;-57
2021/10/01 00:09:03;;;;;;;;;;;;;;;;;;10298659;28;20219;-57
2021/10/01 00:14:01;;;;;;;;;;;;;;;;;;10317953;28;19951;-55
2021/10/01 00:18:59;;;;;;;;;;;;;;;;;;10317683;28;19920;-56
2021/10/01 00:23:57;;;;;;;;;;;;;;;;;;10316377;28;20340;-56
2021/10/01 00:28:55;;;;;;;;;;;;;;;;;;10316240;28;19940;-56
2021/10/01 00:33:53;;;;;;;;;;;;;;;;;;10315830;28;19921;-56
2021/10/01 00:38:51;;;;;;;;;;;;;;;;;;10316405;28;19959;-55
2021/10/01 00:43:49;;;;;;;;;;;;;;;;;;10315753;28;19963;-56
2021/10/01 00:48:46;;;;;;;;;;;;;;;;;;10316351;28;19927;-55
2021/10/01 00:53:44;;;;;;;;;;;;;;;;;;10316986;28;19927;-53
2021/10/01 00:58:43;;;;;;;;;;;;;;;;;;10296874;28;19932;-56
2021/10/01 01:03:40;;;;;;;;;;;;;;;;;;10298036;28;19921;-56
2021/10/01 01:08:39;;;;;;;;;;;;;;;;;;10297808;28;20282;-56
2021/10/01 01:13:37;;;;;;;;;;;;;;;;;;10297882;28;20309;-55
2021/10/01 01:18:35;;;;;;;;;;;;;;;;;;10316350;28;19927;-55
2021/10/01 01:23:33;;;;;;;;;;;;;;;;;;10297317;28;19968;-56
2021/10/01 01:28:32;;;;;;;;;;;;;;;;;;10296952;28;19920;-56
2021/10/01 01:33:30;;;;;;;;;;;;;;;;;;10296264;28;19925;-56
2021/10/01 01:38:28;;;;;;;;;;;;;;;;;;10315254;28;20428;-56
2021/10/01 01:43:26;;;;;;;;;;;;;;;;;;10299633;28;19939;-55
2021/10/01 01:48:24;;;;;;;;;;;;;;;;;;10322928;28;19970;-55
2021/10/01 01:53:22;;;;;;;;;;;;;;;;;;10321698;28;19921;-57
2021/10/01 01:58:20;;;;;;;;;;;;;;;;;;10303113;28;19931;-55
2021/10/01 02:03:37;;;;;;;;;;;;;;;;;;10321432;28;19975;-56
2021/10/01 02:08:42;;;;;;;;;;;;;;;;;;10300991;28;19924;-56
2021/10/01 02:13:40;;;;;;;;;;;;;;;;;;10302875;28;19920;-55
2021/10/01 02:18:42;;;;;;;;;;;;;;;;;;10302303;28;19920;-56
2021/10/01 02:23:40;;;;;;;;;;;;;;;;;;10302026;28;19928;-55
2021/10/01 02:28:39;;;;;;;;;;;;;;;;;;10301641;28;19936;-55
2021/10/01 02:33:37;;;;;;;;;;;;;;;;;;10302124;28;20028;-56
2021/10/01 02:38:35;;;;;;;;;;;;;;;;;;10302183;28;20397;-56
2021/10/01 02:43:33;;;;;;;;;;;;;;;;;;10301471;28;19931;-56
2021/10/01 02:48:31;;;;;;;;;;;;;;;;;;10307297;28;19927;-56
2021/10/01 02:53:29;;;;;;;;;;;;;;;;;;10318135;28;20313;-58
2021/10/01 02:58:28;;;;;;;;;;;;;;;;;;10316878;28;20318;-57
2021/10/01 03:03:26;;;;;;;;;;;;;;;;;;10319213;28;20065;-56
2021/10/01 03:08:24;;;;;;;;;;;;;;;;;;10316799;28;19921;-57
2021/10/01 03:13:24;;;;;;;;;;;;;;;;;;10316551;28;19921;-55
2021/10/01 03:18:23;;;;;;;;;;;;;;;;;;10314907;28;19920;-56
2021/10/01 03:23:22;;;;;;;;;;;;;;;;;;10315791;28;19959;-56
2021/10/01 03:28:20;;;;;;;;;;;;;;;;;;10314900;28;19927;-54
2021/10/01 03:33:18;;;;;;;;;;;;;;;;;;10314576;28;20299;-56
2021/10/01 03:38:16;;;;;;;;;;;;;;;;;;10314907;28;19920;-55
2021/10/01 03:43:16;;;;;;;;;;;;;;;;;;10314423;28;20049;-55
2021/10/01 03:48:14;;;;;;;;;;;;;;;;;;10314102;28;19927;-57
2021/10/01 03:53:40;;;;;;;;;;;;;;;;;;10313330;28;19924;-55
2021/10/01 03:58:39;;;;;;;;;;;;;;;;;;10314003;28;19932;-56
2021/10/01 04:03:37;;;;;;;;;;;;;;;;;;10313680;28;19978;-56
2021/10/01 04:08:36;;;;;;;;;;;;;;;;;;10312106;28;19924;-56
2021/10/01 04:13:34;;;;;;;;;;;;;;;;;;10313896;28;19976;-57
2021/10/01 04:18:32;;;;;;;;;;;;;;;;;;10312399;28;19920;-56
2021/10/01 04:23:30;;;;;;;;;;;;;;;;;;10312890;28;19939;-57
2021/10/01 04:28:49;;;;;;;;;;;;;;;;;;10314499;28;19928;-58
2021/10/01 04:33:48;;;;;;;;;;;;;;;;;;10311762;28;19943;-57
2021/10/01 04:38:47;;;;;;;;;;;;;;;;;;10312384;28;20269;-56
2021/10/01 04:43:45;;;;;;;;;;;;;;;;;;10312205;28;19924;-56
2021/10/01 04:48:58;;;;;;;;;;;;;;;;;;10309657;28;19936;-56
2021/10/01 04:53:57;;;;;;;;;;;;;;;;;;10309150;28;19920;-55
2021/10/01 04:58:56;;;;;;;;;;;;;;;;;;10309123;28;19967;-56
2021/10/01 05:04:13;;;;;;;;;;;;;;;;;;10313317;28;19956;-56
2021/10/01 05:09:11;;;;;;;;;;;;;;;;;;10311605;28;19954;-56
2021/10/01 05:14:27;;;;;;;;;;;;;;;;;;10322475;28;19959;-55
2021/10/01 05:19:54;;;;;;;;;;;;;;;;;;10318618;28;20366;-55
2021/10/01 05:24:58;;;;;;;;;;;;;;;;;;10322031;28;19920;-55
2021/10/01 05:29:56;;;;;;;;;;;;;;;;;;10295275;28;19974;-58
2021/10/01 05:34:54;;;;;;;;;;;;;;;;;;10282754;28;19956;-54
2021/10/01 13:24:10;;;;;;;11.85;8.75;;;;;;;;;;10434701;27;20382;-56
2021/10/01 13:29:11;;;;;;;13.75;6.95;;;;;;;;;;10434963;27;20075;-60
2021/10/01 13:34:10;;;;;;;10.60;7.65;;;;;;;;;;10434273;28;20503;-60
2021/10/01 13:39:10;;;;;;;13.50;11.80;;;;;;;;;;10434140;28;20043;-60
2021/10/01 13:44:08;;;;;;;12.95;8.05;;;;;;;;;;10434371;28;20043;-58
2021/10/01 13:49:06;;;;;;;10.90;7.43;;;;;;;;;;10433527;28;20071;-60
2021/10/01 13:54:05;;;;;;;10.02;7.55;;;;;;;;;;10433834;28;20058;-57
2021/10/01 13:59:04;;;;;;;11.90;8.20;;;;;;;;;;10432966;28;20098;-57
2021/10/01 14:04:03;;;;;;;12.93;10.15;;;;;;;;;;10433009;28;20055;-58
2021/10/01 14:09:01;;;;;;;17.55;12.43;;;;;;;;;;10432636;28;20114;-59
2021/10/01 14:14:21;;;;;;;14.90;8.85;;;;;;;;;;10432175;28;20042;-59
2021/10/01 14:19:19;;;;;;;26.80;15.93;;;;;;;;;;10431352;28;20081;-59
2021/10/01 14:24:17;;;;;;;18.63;12.20;;;;;;;;;;10408648;28;20046;-59
2021/10/01 14:29:16;;;;;;;18.08;11.70;;;;;;;;;;10404093;28;20035;-59
2021/10/01 14:34:16;;;;;;;17.05;10.73;;;;;;;;;;10403897;28;20142;-59
2021/10/01 14:39:14;;;;;;;15.75;11.45;;;;;;;;;;10403880;28;20038;-59
2021/10/01 14:44:12;;;;;;;17.15;11.52;;;;;;;;;;10403603;28;20054;-59
2021/10/01 14:49:11;;;;;;;14.82;9.60;;;;;;;;;;10403129;28;20078;-59
2021/10/01 14:54:10;;;;;;;15.23;10.75;;;;;;;;;;10403206;28;20051;-59
2021/10/01 14:59:09;;;;;;;14.13;8.75;;;;;;;;;;10403139;28;20079;-59
2021/10/01 15:04:07;;;;;;;33.30;22.42;;;;;;;;;;10402870;28;20082;-59
2021/10/01 15:09:06;;;;;;;20.52;17.05;;;;;;;;;;10402662;28;20452;-59
2021/10/01 15:14:05;;;;;;;14.52;10.45;;;;;;;;;;10401492;28;20109;-59
2021/10/01 15:19:04;;;;;;;17.55;11.35;;;;;;;;;;10402443;28;20043;-58
2021/10/01 15:24:02;;;;;;;14.30;9.77;;;;;;;;;;10401311;28;20064;-58
2021/10/01 15:29:00;;;;;;;11.80;8.73;;;;;;;;;;10401371;28;20110;-56
2021/10/01 15:34:00;;;;;;;10.15;8.10;;;;;;;;;;10400945;28;20465;-54
2021/10/01 15:38:58;;;;;;;16.60;8.27;;;;;;;;;;10400914;28;20083;-53
2021/10/01 15:43:57;;;;;;;15.63;7.00;;;;;;;;;;10401228;28;20120;-54
2021/10/01 15:48:55;;;;;;;8.45;6.65;;;;;;;;;;10400488;28;20054;-57
2021/10/01 15:53:55;;;;;;;7.50;6.25;;;;;;;;;;10401153;28;20051;-55
2021/10/01 15:58:53;;;;;;;10.90;6.38;;;;;;;;;;10400922;28;20047;-55
2021/10/01 16:03:52;;;;;;;20.77;5.70;;;;;;;;;;10400519;28;20082;-54
2021/10/01 16:08:50;;;;;;;11.50;6.70;;;;;;;;;;10400437;28;20136;-54
2021/10/01 16:13:50;;;;;;;17.13;10.18;;;;;;;;;;10397932;28;20071;-56
2021/10/01 16:18:48;;;;;;;18.85;7.50;;;;;;;;;;10397328;28;20047;-55
2021/10/01 16:23:46;;;;;;;14.85;7.32;;;;;;;;;;10397426;28;20087;-54
2021/10/01 16:28:45;;;;;;;13.93;8.43;;;;;;;;;;10397499;28;20035;-57
2021/10/01 16:33:44;;;;;;;13.27;7.72;;;;;;;;;;10396459;28;20113;-56
2021/10/01 16:38:43;;;;;;;19.35;6.25;;;;;;;;;;10393089;28;20086;-54
2021/10/01 16:43:41;;;;;;;14.82;5.13;;;;;;;;;;10393845;28;20098;-56
2021/10/01 16:48:39;;;;;;;9.95;6.95;;;;;;;;;;10392204;28;20126;-55
2021/10/01 16:53:39;;;;;;;11.85;5.10;;;;;;;;;;10397445;28;20071;-53
2021/10/01 16:58:38;;;;;;;10.52;5.18;;;;;;;;;;10397617;28;20048;-54
2021/10/01 17:03:36;;;;;;;16.50;5.10;;;;;;;;;;10396846;28;20048;-55
2021/10/01 17:08:36;;;;;;;11.40;5.05;;;;;;;;;;10394471;28;20452;-53
2021/10/01 17:13:35;;;;;;;11.32;5.10;;;;;;;;;;10393511;28;20047;-56
2021/10/01 17:18:34;;;;;;;9.38;5.65;;;;;;;;;;10393450;28;20039;-55
2021/10/01 17:23:32;;;;;;;15.93;11.52;;;;;;;;;;10392459;28;20087;-53
2021/10/01 17:28:31;;;;;;;21.13;14.57;;;;;;;;;;10394999;28;20043;-54
2021/10/01 17:33:31;;;;;;;16.73;10.27;;;;;;;;;;10387621;28;20039;-54
2021/10/01 17:38:29;;;;;;;13.98;7.35;;;;;;;;;;10389253;28;20119;-50
2021/10/01 17:43:28;;;;;;;12.10;5.70;;;;;;;;;;10389576;28;20043;-53
2021/10/01 17:48:26;;;;;;;22.75;13.30;;;;;;;;;;10388230;28;20400;-52
2021/10/01 17:53:26;;;;;;;20.98;15.38;;;;;;;;;;10389115;28;20091;-52
2021/10/01 17:58:24;;;;;;;13.93;8.00;;;;;;;;;;10393779;28;20070;-51
2021/10/01 18:03:22;;;;;;;9.30;7.53;;;;;;;;;;10396967;28;20123;-54
2021/10/01 18:08:20;;;;;;;22.42;7.00;;;;;;;;;;10396735;28;20340;-54
2021/10/01 18:13:20;;;;;;;17.80;7.53;;;;;;;;;;10395916;28;20463;-53
2021/10/01 18:18:18;;;;;;;11.75;5.80;;;;;;;;;;10395432;28;20070;-53
2021/10/01 18:23:17;;;;;;;9.75;6.13;;;;;;;;;;10395754;28;20135;-53
2021/10/01 18:28:17;;;;;;;10.93;6.18;;;;;;;;;;10397199;28;20035;-53
2021/10/01 18:33:17;;;;;;;16.02;6.68;;;;;;;;;;10393542;28;20448;-54
2021/10/01 18:38:17;;;;;;;7.53;5.25;;;;;;;;;;10394783;28;20127;-53
2021/10/01 18:43:18;;;;;;;17.77;5.90;;;;;;;;;;10394999;28;20106;-54
2021/10/01 18:48:18;;;;;;;8.38;5.30;;;;;;;;;;10394167;28;20119;-53
2021/10/01 18:53:17;;;;;;;10.30;5.22;;;;;;;;;;10395948;28;20130;-53
2021/10/01 18:58:15;;;;;;;11.80;6.57;;;;;;;;;;10394625;28;20123;-53
2021/10/01 19:03:14;;;;;;;9.85;5.85;;;;;;;;;;10394144;28;20097;-51
2021/10/01 19:08:13;;;;;;;15.07;6.05;;;;;;;;;;10393168;28;20044;-53
2021/10/01 19:13:12;;;;;;;13.25;5.85;;;;;;;;;;10393952;28;20047;-53
2021/10/01 19:18:10;;;;;;;11.07;5.65;;;;;;;;;;10394541;28;20148;-54
2021/10/01 19:23:22;;;;;;;11.18;5.38;;;;;;;;;;10392891;28;20086;-53
2021/10/01 19:33:34;;;;;;;12.82;5.70;;;;;;;;;;10358244;28;20425;-52
2021/10/01 19:38:33;;;;;;;12.25;5.57;;;;;;;;;;10394081;28;20048;-53
2021/10/01 19:43:33;;;;;;;10.38;4.95;;;;;;;;;;10394721;28;20102;-53
2021/10/01 19:48:32;;;;;;;6.00;3.83;;;;;;;;;;10395070;28;20056;-55
2021/10/01 19:53:30;;;;;;;4.65;3.67;;;;;;;;;;10393429;28;20059;-55
2021/10/01 19:58:29;;;;;;;8.88;4.82;;;;;;;;;;10393631;28;20059;-53
2021/10/01 20:03:29;;;;;;;7.55;4.00;;;;;;;;;;10390408;28;20491;-52
2021/10/01 20:08:27;;;;;;;8.35;4.00;;;;;;;;;;10393894;28;20039;-54
2021/10/01 20:13:25;;;;;;;7.53;4.57;;;;;;;;;;10393244;28;20059;-54
2021/10/01 20:18:35;;;;;;;9.30;4.82;;;;;;;;;;10391305;28;20162;-53
2021/10/01 20:23:57;;;;;;;8.48;4.03;;;;;;;;;;10390692;28;20102;-54
2021/10/01 20:50:00;;;;;;;7.20;3.65;;;;;;;;;;10391598;28;20342;-52
2021/10/01 20:54:59;;;;;;;9.77;4.03;;;;;;;;;;10393038;28;20055;-53
2021/10/01 21:00:05;;;;;;;5.75;4.20;;;;;;;;;;10391312;28;20062;-55
2021/10/01 21:05:37;;;;;;;5.43;3.88;;;;;;;;;;10392621;28;20078;-54
2021/10/01 21:42:35;;;;;;;6.55;3.75;;;;;;;;;;10270378;28;20073;-54
2021/10/01 21:47:39;;;;;;;5.75;3.45;;;;;;;;;;10367056;28;20400;-55
2021/10/01 21:52:38;;;;;;;;;;;;;;;;;;10397883;28;20047;-54
2021/10/01 21:57:36;;;;;;;10.75;5.60;;;;;;;;;;10396935;28;20015;-53
2021/10/01 22:08:09;;;;;;;9.38;5.15;;;;;;;;;;10396953;28;20461;-56
2021/10/01 22:23:59;;;;;;;10.45;7.70;;;;;;;;;;10341995;28;20124;-54
2021/10/01 22:28:58;;;;;;;9.90;6.03;;;;;;;;;;10343058;28;20045;-54
2021/10/01 22:33:58;;;;;;;7.93;5.68;;;;;;;;;;10342324;28;20097;-53
2021/10/01 22:38:56;;;;;;;8.73;5.40;;;;;;;;;;10341634;28;20351;-54
2021/10/01 22:43:55;;;;;;;8.27;4.88;;;;;;;;;;10341224;28;20469;-54
2021/10/01 22:48:54;;;;;;;13.18;5.97;;;;;;;;;;10342304;28;20051;-51
2021/10/01 22:53:54;;;;;;;11.90;5.07;;;;;;;;;;10340531;28;20136;-54
2021/10/01 22:58:53;;;;;;;13.32;5.15;;;;;;;;;;10340304;28;20128;-50
2021/10/01 23:03:51;;;;;;;9.18;5.65;;;;;;;;;;10340865;28;20049;-54
2021/10/01 23:08:50;;;;;;;9.57;6.15;;;;;;;;;;10340523;28;20048;-54
2021/10/01 23:51:00;;;;;;;8.63;4.87;;;;;;;;;;10265002;28;20441;-54
